createdAt,value
2018-08-28T09:27:10.845Z,56.42
2018-08-28T09:28:12.344Z,56.50
2018-08-28T09:29:12.533Z,56.52
2018-08-28T09:30:12.671Z,56.52
2018-08-28T09:31:13.012Z,55.95
2018-08-28T09:32:12.145Z,55.50
2018-08-28T09:33:13.607Z,55.75
2018-08-28T09:34:14.078Z,55.81
2018-08-28T09:35:14.534Z,56.33
2018-08-28T09:36:13.811Z,56.11
2018-08-28T09:37:15.035Z,56.16
2018-08-28T09:38:15.249Z,56.14
2018-08-28T09:39:15.399Z,56.33
2018-08-28T09:40:15.462Z,56.42
2018-08-28T09:41:16.443Z,56.27
2018-08-28T09:42:16.672Z,56.13
2018-08-28T09:43:16.871Z,56.00
2018-08-28T09:44:17.465Z,56.00
2018-08-28T09:45:17.772Z,55.91
2018-08-28T09:46:17.895Z,55.76
2018-08-28T09:47:18.015Z,55.68
2018-08-28T09:48:18.358Z,56.20
2018-08-28T09:49:17.457Z,55.98
2018-08-28T09:50:18.655Z,55.66
2018-08-28T09:51:18.682Z,55.88
2018-08-28T09:52:19.054Z,55.81
2018-08-28T09:53:19.412Z,55.48
2018-08-28T09:54:19.759Z,55.99
2018-08-28T09:55:22.978Z,55.98
2018-08-28T09:56:20.155Z,55.28
2018-08-28T09:57:20.141Z,55.40
2018-08-28T09:58:20.673Z,55.12
2018-08-28T09:59:21.039Z,54.71
2018-08-28T10:00:21.252Z,53.41
2018-08-28T10:01:21.438Z,54.29
2018-08-28T10:02:21.685Z,54.21
2018-08-28T10:03:21.908Z,53.96
2018-08-28T10:04:22.091Z,53.47
2018-08-28T10:05:22.308Z,53.03
2018-08-28T10:06:22.699Z,51.84
2018-08-28T10:07:23.026Z,52.24
2018-08-28T10:08:23.179Z,52.09
2018-08-28T10:09:23.406Z,52.14
2018-08-28T10:10:23.682Z,52.63
2018-08-28T10:11:23.767Z,52.50
2018-08-28T10:12:24.488Z,52.84
2018-08-28T10:13:24.727Z,52.60
2018-08-28T10:13:33.492Z,53.19
2018-08-28T10:14:33.984Z,53.31
2018-08-28T10:15:34.585Z,53.52
2018-08-28T10:16:34.836Z,53.55
2018-08-28T10:17:35.095Z,52.04
2018-08-28T10:18:35.285Z,51.33
2018-08-28T10:19:35.573Z,50.93
2018-08-28T10:20:36.179Z,51.01
2018-08-28T10:21:36.332Z,51.33
2018-08-28T10:22:36.428Z,50.22
2018-08-28T10:23:36.620Z,50.87
2018-08-28T10:24:36.834Z,50.92
2018-08-28T10:25:37.076Z,51.48
2018-08-28T10:26:37.735Z,52.07
2018-08-28T10:27:37.895Z,51.48
2018-08-28T10:28:38.030Z,51.51
2018-08-28T10:29:38.306Z,51.46
2018-08-28T10:30:38.638Z,51.76
2018-08-28T10:31:38.887Z,51.32
2018-08-28T10:32:39.114Z,51.83
2018-08-28T10:33:40.393Z,51.47
2018-08-28T10:34:39.788Z,50.69
2018-08-28T10:35:40.106Z,51.03
2018-08-28T10:36:39.586Z,51.07
2018-08-28T10:37:39.669Z,50.87
2018-08-28T10:38:42.077Z,50.85
2018-08-28T10:39:40.759Z,50.87
2018-08-28T10:40:42.531Z,50.63
2018-08-28T10:41:42.129Z,50.69
2018-08-28T10:42:42.499Z,50.49
2018-08-28T10:43:44.054Z,50.29
2018-08-28T10:44:44.707Z,49.52
2018-08-28T10:45:45.327Z,50.01
2018-08-28T10:46:46.158Z,49.70
2018-08-28T10:47:45.383Z,49.58
2018-08-28T10:48:46.790Z,49.50
2018-08-28T10:49:47.002Z,49.63
2018-08-28T10:50:47.207Z,49.37
2018-08-28T10:51:47.623Z,48.98
2018-08-28T10:52:47.797Z,49.43
2018-08-28T10:53:46.921Z,49.28
2018-08-28T10:54:48.163Z,49.12
2018-08-28T10:55:48.377Z,49.50
2018-08-28T10:56:48.485Z,49.76
2018-08-28T10:57:47.640Z,49.68
2018-08-28T10:58:49.054Z,50.07
2018-08-28T10:59:48.067Z,50.79
2018-08-28T11:00:49.322Z,50.81
2018-08-28T11:01:49.997Z,50.80
2018-08-28T11:02:50.200Z,51.03
2018-08-28T11:03:50.317Z,50.90
2018-08-28T11:03:59.332Z,50.61
2018-08-28T11:04:59.687Z,50.62
2018-08-28T11:06:00.104Z,50.37
2018-08-28T11:07:00.289Z,49.64
2018-08-28T11:08:00.752Z,49.56
2018-08-28T11:09:01.006Z,50.25
2018-08-28T11:10:01.187Z,50.66
2018-08-28T11:11:01.460Z,50.07
2018-08-28T11:12:01.768Z,50.67
2018-08-28T11:13:02.368Z,49.95
2018-08-28T11:14:02.581Z,50.13
2018-08-28T11:15:02.729Z,49.53
2018-08-28T11:16:03.008Z,49.34
2018-08-28T11:17:02.135Z,49.60
2018-08-28T11:18:03.480Z,49.75
2018-08-28T11:19:03.640Z,50.00
2018-08-28T11:20:03.880Z,49.66
2018-08-28T11:21:04.054Z,49.78
2018-08-28T11:22:04.479Z,49.67
2018-08-28T11:23:04.602Z,50.22
2018-08-28T11:24:04.045Z,50.19
2018-08-28T11:25:05.187Z,49.91
2018-08-28T11:26:05.894Z,49.69
2018-08-28T11:27:06.357Z,49.69
2018-08-28T11:28:07.060Z,49.02
2018-08-28T11:29:06.357Z,48.80
2018-08-28T11:30:07.570Z,48.61
2018-08-28T11:31:08.187Z,48.60
2018-08-28T11:32:08.564Z,48.26
2018-08-28T11:33:08.963Z,48.07
2018-08-28T11:34:08.037Z,48.24
2018-08-28T11:35:09.175Z,48.08
2018-08-28T11:36:09.329Z,48.34
2018-08-28T11:37:09.778Z,48.07
2018-08-28T11:38:11.195Z,48.26
2018-08-28T11:39:10.560Z,48.36
2018-08-28T11:40:11.917Z,47.84
2018-08-28T11:41:11.774Z,47.98
2018-08-28T11:42:12.338Z,48.21
2018-08-28T11:43:12.173Z,48.09
2018-08-28T11:44:12.039Z,48.18
2018-08-28T11:45:13.091Z,47.90
2018-08-28T11:46:13.712Z,47.33
2018-08-28T11:47:14.268Z,47.27
2018-08-28T11:48:13.534Z,47.45
2018-08-28T11:48:22.540Z,47.77
2018-08-28T11:49:22.895Z,47.82
2018-08-28T11:50:23.026Z,47.53
2018-08-28T11:51:23.158Z,46.79
2018-08-28T11:52:23.291Z,47.10
2018-08-28T11:53:23.641Z,47.60
2018-08-28T11:54:23.072Z,47.77
2018-08-28T11:55:24.677Z,48.03
2018-08-28T11:56:24.692Z,47.41
2018-08-28T11:57:25.026Z,47.68
2018-08-28T11:58:25.176Z,48.04
2018-08-28T11:59:25.342Z,47.63
2018-08-28T12:00:25.843Z,47.33
2018-08-28T12:01:26.038Z,47.30
2018-08-28T12:02:26.212Z,47.92
2018-08-28T12:03:26.746Z,48.01
2018-08-28T12:04:25.997Z,48.05
2018-08-28T12:05:26.591Z,47.09
2018-08-28T12:06:26.871Z,47.43
2018-08-28T12:07:28.201Z,47.50
2018-08-28T12:08:27.305Z,47.19
2018-08-28T12:09:27.878Z,47.58
2018-08-28T12:10:29.510Z,47.74
2018-08-28T12:11:29.734Z,47.65
2018-08-28T12:12:30.029Z,47.98
2018-08-28T12:13:31.005Z,47.49
2018-08-28T12:14:31.067Z,46.68
2018-08-28T12:15:31.379Z,46.80
2018-08-28T12:16:31.952Z,46.61
2018-08-28T12:17:32.437Z,46.16
2018-08-28T12:18:32.588Z,46.86
2018-08-28T12:19:32.959Z,46.81
2018-08-28T12:20:32.104Z,46.59
2018-08-28T12:21:32.303Z,46.54
2018-08-28T12:22:33.532Z,46.37
2018-08-28T12:23:33.716Z,46.64
2018-08-28T12:24:34.425Z,45.81
2018-08-28T12:25:34.650Z,45.52
2018-08-28T12:26:34.847Z,45.54
2018-08-28T12:27:35.530Z,45.68
2018-08-28T12:28:35.748Z,45.13
2018-08-28T12:29:36.014Z,45.44
2018-08-28T12:30:35.187Z,45.68
2018-08-28T12:31:36.462Z,45.70
2018-08-28T12:32:36.661Z,45.61
2018-08-28T12:33:36.850Z,45.76
2018-08-28T12:34:36.972Z,45.37
2018-08-28T12:35:37.268Z,45.68
2018-08-28T12:36:37.830Z,45.50
2018-08-28T12:37:37.611Z,45.37
2018-08-28T12:38:37.835Z,45.21
2018-08-28T12:39:38.113Z,45.35
2018-08-28T12:39:46.945Z,45.43
2018-08-28T12:40:47.394Z,45.53
2018-08-28T12:41:47.717Z,45.63
2018-08-28T12:42:48.358Z,45.83
2018-08-28T12:43:48.821Z,46.11
2018-08-28T12:44:49.572Z,46.17
2018-08-28T12:45:49.906Z,45.82
2018-08-28T12:46:50.208Z,45.75
2018-08-28T12:47:50.609Z,46.09
2018-08-28T12:48:51.266Z,46.12
2018-08-28T12:49:51.807Z,46.23
2018-08-28T12:50:52.243Z,45.94
2018-08-28T12:51:52.533Z,45.98
2018-08-28T12:52:52.867Z,46.42
2018-08-28T12:53:53.157Z,45.83
2018-08-28T12:54:53.527Z,46.12
2018-08-28T12:55:52.792Z,46.26
2018-08-28T12:56:54.115Z,46.55
2018-08-28T12:57:54.481Z,46.49
2018-08-28T12:58:55.047Z,46.30
2018-08-28T12:59:55.328Z,46.44
2018-08-28T13:00:55.805Z,46.32
2018-08-28T13:01:55.128Z,46.36
2018-08-28T13:02:56.449Z,46.77
2018-08-28T13:03:56.718Z,47.21
2018-08-28T13:04:57.280Z,46.48
2018-08-28T13:05:56.529Z,45.79
2018-08-28T13:06:58.160Z,46.21
2018-08-28T13:07:58.541Z,47.45
2018-08-28T13:08:59.394Z,47.68
2018-08-28T13:09:59.851Z,47.82
2018-08-28T13:11:00.406Z,47.58
2018-08-28T13:12:00.945Z,46.83
2018-08-28T13:13:01.224Z,46.68
2018-08-28T13:14:01.552Z,46.82
2018-08-28T13:15:02.074Z,45.80
2018-08-28T13:16:01.669Z,45.69
2018-08-28T13:17:03.061Z,45.96
2018-08-28T13:18:02.329Z,46.05
2018-08-28T13:19:03.680Z,46.50
2018-08-28T13:20:04.146Z,46.45
2018-08-28T13:21:03.385Z,46.29
2018-08-28T13:22:04.647Z,46.35
2018-08-28T13:23:04.948Z,46.33
2018-08-28T13:24:05.276Z,46.44
2018-08-28T13:25:05.795Z,46.54
2018-08-28T13:26:06.304Z,46.19
2018-08-28T13:27:05.479Z,46.02
2018-08-28T13:28:06.828Z,46.29
2018-08-28T13:29:07.160Z,46.26
2018-08-28T13:29:15.995Z,45.65
2018-08-28T13:30:16.436Z,45.59
2018-08-28T13:31:17.157Z,45.76
2018-08-28T13:32:16.698Z,46.15
2018-08-28T13:33:18.954Z,45.47
2018-08-28T13:34:18.077Z,45.88
2018-08-28T13:35:18.602Z,45.76
2018-08-28T13:36:18.982Z,45.66
2018-08-28T13:37:19.438Z,45.30
2018-08-28T13:38:19.720Z,45.78
2018-08-28T13:39:20.030Z,45.86
2018-08-28T13:40:20.423Z,46.40
2018-08-28T13:41:19.767Z,46.17
2018-08-28T13:42:21.177Z,45.74
2018-08-28T13:43:20.437Z,45.98
2018-08-28T13:44:21.699Z,46.32
2018-08-28T13:45:22.132Z,46.20
2018-08-28T13:46:22.428Z,46.17
2018-08-28T13:47:22.805Z,46.10
2018-08-28T13:48:23.096Z,46.42
2018-08-28T13:49:22.367Z,46.46
2018-08-28T13:50:23.665Z,46.27
2018-08-28T13:51:23.639Z,45.21
2018-08-28T13:52:23.925Z,45.26
2018-08-28T13:53:24.192Z,45.56
2018-08-28T13:54:24.878Z,45.65
2018-08-28T13:55:24.183Z,45.25
2018-08-28T13:56:25.468Z,44.89
2018-08-28T13:57:25.735Z,44.32
2018-08-28T13:58:26.070Z,44.44
2018-08-28T13:59:26.395Z,44.84
2018-08-28T14:00:26.735Z,45.34
2018-08-28T14:01:27.189Z,45.66
2018-08-28T14:02:27.508Z,45.82
2018-08-28T14:03:27.832Z,45.94
2018-08-28T14:04:28.192Z,45.32
2018-08-28T14:05:28.621Z,45.48
2018-08-28T14:06:28.871Z,45.55
2018-08-28T14:07:29.249Z,45.69
2018-08-28T14:08:29.559Z,44.53
2018-08-28T14:09:29.935Z,44.59
2018-08-28T14:10:30.257Z,44.53
2018-08-28T14:11:31.513Z,44.13
2018-08-28T14:12:31.258Z,43.96
2018-08-28T14:13:31.867Z,44.42
2018-08-28T14:14:31.137Z,44.35
2018-08-28T14:15:32.973Z,44.66
2018-08-28T14:16:33.307Z,44.55
2018-08-28T14:17:33.710Z,45.51
2018-08-28T14:17:42.439Z,45.11
2018-08-28T14:18:43.638Z,45.26
2018-08-28T14:19:44.304Z,44.87
2018-08-28T14:20:43.692Z,44.54
2018-08-28T14:21:45.022Z,44.43
2018-08-28T14:22:45.350Z,44.53
2018-08-28T14:23:45.674Z,44.89
2018-08-28T14:24:46.104Z,44.59
2018-08-28T14:25:46.714Z,44.61
2018-08-28T14:26:46.870Z,44.14
2018-08-28T14:27:47.307Z,44.23
2018-08-28T14:28:47.567Z,44.00
2018-08-28T14:29:46.734Z,44.29
2018-08-28T14:30:48.505Z,44.21
2018-08-28T14:31:48.829Z,44.05
2018-08-28T14:32:48.430Z,44.37
2018-08-28T14:33:50.062Z,44.54
2018-08-28T14:34:50.344Z,44.57
2018-08-28T14:35:50.643Z,43.63
2018-08-28T14:36:50.945Z,43.82
2018-08-28T14:37:51.471Z,43.59
2018-08-28T14:38:52.139Z,43.84
2018-08-28T14:39:52.594Z,43.57
2018-08-28T14:40:52.954Z,44.14
2018-08-28T14:41:53.326Z,44.19
2018-08-28T14:42:53.584Z,44.54
2018-08-28T14:43:53.969Z,44.50
2018-08-28T14:44:53.620Z,44.04
2018-08-28T14:45:55.083Z,44.07
2018-08-28T14:46:55.453Z,44.31
2018-08-28T14:47:55.929Z,44.75
2018-08-28T14:48:56.471Z,44.40
2018-08-28T14:49:56.984Z,44.83
2018-08-28T14:50:56.143Z,43.86
2018-08-28T14:51:57.610Z,43.95
2018-08-28T14:52:57.989Z,44.33
2018-08-28T14:53:58.290Z,43.85
2018-08-28T14:54:58.680Z,43.26
2018-08-28T14:55:59.001Z,44.17
2018-08-28T14:56:58.289Z,44.59
2018-08-28T14:57:59.810Z,44.55
2018-08-28T14:58:59.190Z,44.47
2018-08-28T15:00:00.849Z,44.28
2018-08-28T15:01:01.168Z,44.66
2018-08-28T15:02:01.535Z,44.43
2018-08-28T15:03:01.849Z,44.09
2018-08-28T15:04:02.364Z,44.57
2018-08-28T15:05:01.686Z,44.52
2018-08-28T15:06:02.998Z,44.78
2018-08-28T15:07:03.482Z,45.00
2018-08-28T15:08:02.969Z,44.14
2018-08-28T15:08:11.058Z,44.13
2018-08-28T15:09:12.555Z,44.04
2018-08-28T15:10:13.034Z,44.15
2018-08-28T15:11:12.376Z,43.69
2018-08-28T15:12:13.583Z,44.14
2018-08-28T15:13:13.967Z,44.08
2018-08-28T15:14:14.348Z,43.84
2018-08-28T15:15:14.735Z,44.00
2018-08-28T15:16:15.221Z,43.83
2018-08-28T15:17:15.661Z,43.65
2018-08-28T15:18:16.201Z,44.07
2018-08-28T15:19:16.562Z,43.99
2018-08-28T15:20:16.821Z,43.76
2018-08-28T15:21:17.137Z,44.07
2018-08-28T15:22:16.467Z,44.48
2018-08-28T15:23:17.994Z,44.27
2018-08-28T15:24:18.332Z,44.88
2018-08-28T15:25:18.690Z,44.52
2018-08-28T15:26:19.036Z,44.04
2018-08-28T15:27:19.464Z,44.44
2018-08-28T15:28:18.700Z,44.49
2018-08-28T15:29:21.018Z,44.56
2018-08-28T15:30:20.751Z,44.57
2018-08-28T15:31:19.948Z,44.60
2018-08-28T15:32:21.209Z,44.49
2018-08-28T15:33:22.016Z,44.35
2018-08-28T15:34:22.407Z,44.55
2018-08-28T15:35:22.675Z,44.53
2018-08-28T15:36:23.139Z,44.58
2018-08-28T15:37:23.471Z,44.45
2018-08-28T15:38:23.975Z,44.29
2018-08-28T15:39:24.381Z,44.51
2018-08-28T15:40:24.698Z,44.59
2018-08-28T15:41:25.040Z,44.38
2018-08-28T15:42:25.417Z,44.58
2018-08-28T15:43:25.706Z,44.67
2018-08-28T15:44:26.011Z,44.95
2018-08-28T15:45:26.564Z,44.90
2018-08-28T15:46:26.921Z,44.51
2018-08-28T15:47:27.240Z,44.43
2018-08-28T15:48:27.496Z,44.77
2018-08-28T15:49:27.960Z,44.08
2018-08-28T15:50:28.241Z,44.58
2018-08-28T15:51:29.098Z,44.59
2018-08-28T15:52:28.426Z,44.47
2018-08-28T15:53:29.732Z,44.55
2018-08-28T15:54:30.015Z,44.54
2018-08-28T15:55:30.298Z,44.80
2018-08-28T15:55:39.259Z,44.91
2018-08-28T15:56:39.482Z,44.95
2018-08-28T15:57:39.905Z,45.12
2018-08-28T15:58:40.207Z,44.86
2018-08-28T15:59:40.624Z,44.61
2018-08-28T16:00:41.524Z,44.58
2018-08-28T16:01:41.813Z,44.41
2018-08-28T16:02:42.073Z,44.50
2018-08-28T16:03:42.387Z,44.58
2018-08-28T16:04:42.855Z,45.07
2018-08-28T16:05:42.086Z,44.65
2018-08-28T16:06:43.424Z,44.56
2018-08-28T16:07:43.886Z,44.84
2018-08-28T16:08:44.177Z,44.58
2018-08-28T16:09:44.434Z,44.42
2018-08-28T16:10:43.726Z,44.46
2018-08-28T16:11:45.119Z,45.15
2018-08-28T16:12:45.412Z,44.94
2018-08-28T16:13:46.366Z,45.44
2018-08-28T16:14:46.747Z,45.44
2018-08-28T16:15:47.218Z,45.09
2018-08-28T16:16:47.628Z,44.91
2018-08-28T16:17:48.060Z,44.72
2018-08-28T16:18:48.560Z,44.87
2018-08-28T16:19:48.861Z,44.77
2018-08-28T16:20:49.415Z,44.42
2018-08-28T16:21:49.703Z,44.43
2018-08-28T16:22:50.129Z,44.15
2018-08-28T16:23:50.760Z,43.50
2018-08-28T16:24:49.924Z,43.83
2018-08-28T16:25:51.231Z,44.06
2018-08-28T16:26:51.511Z,44.26
2018-08-28T16:27:51.820Z,44.37
2018-08-28T16:28:52.073Z,44.29
2018-08-28T16:29:52.547Z,44.32
2018-08-28T16:30:51.727Z,44.60
2018-08-28T16:31:53.002Z,44.66
2018-08-28T16:32:53.417Z,44.50
2018-08-28T16:33:53.984Z,44.50
2018-08-28T16:34:54.674Z,44.54
2018-08-28T16:35:55.388Z,44.53
2018-08-28T16:36:54.554Z,44.66
2018-08-28T16:37:54.833Z,45.23
2018-08-28T16:38:56.379Z,45.22
2018-08-28T16:39:56.950Z,45.29
2018-08-28T16:40:57.291Z,45.38
2018-08-28T16:41:57.530Z,45.22
2018-08-28T16:42:57.847Z,45.04
2018-08-28T16:43:58.148Z,45.10
2018-08-28T16:44:06.947Z,45.12
2018-08-28T16:45:08.416Z,45.15
2018-08-28T16:46:08.692Z,45.21
2018-08-28T16:47:09.225Z,45.42
2018-08-28T16:48:09.588Z,45.25
2018-08-28T16:49:09.985Z,44.94
2018-08-28T16:50:10.342Z,44.82
2018-08-28T16:51:09.665Z,45.11
2018-08-28T16:52:10.973Z,45.15
2018-08-28T16:53:11.243Z,45.18
2018-08-28T16:54:11.639Z,45.00
2018-08-28T16:55:11.865Z,44.49
2018-08-28T16:56:12.378Z,45.15
2018-08-28T16:57:12.710Z,45.24
2018-08-28T16:58:13.641Z,45.36
2018-08-28T16:59:14.097Z,45.24
2018-08-28T17:00:14.352Z,44.54
2018-08-28T17:01:14.709Z,44.67
2018-08-28T17:02:13.966Z,44.96
2018-08-28T17:03:15.230Z,44.62
2018-08-28T17:04:15.523Z,45.01
2018-08-28T17:05:15.816Z,45.14
2018-08-28T17:06:16.334Z,44.74
2018-08-28T17:07:17.090Z,45.10
2018-08-28T17:08:16.295Z,45.26
2018-08-28T17:09:17.711Z,45.34
2018-08-28T17:10:18.028Z,45.64
2018-08-28T17:11:18.278Z,45.89
2018-08-28T17:12:18.538Z,45.69
2018-08-28T17:13:17.852Z,45.83
2018-08-28T17:14:19.110Z,46.36
2018-08-28T17:15:20.002Z,46.39
2018-08-28T17:16:20.572Z,45.68
2018-08-28T17:17:20.849Z,46.23
2018-08-28T17:18:21.213Z,46.73
2018-08-28T17:19:21.569Z,46.57
2018-08-28T17:20:20.859Z,46.44
2018-08-28T17:21:22.246Z,46.61
2018-08-28T17:22:22.619Z,46.70
2018-08-28T17:23:23.571Z,47.05
2018-08-28T17:24:23.876Z,46.48
2018-08-28T17:25:24.175Z,46.93
2018-08-28T17:26:27.525Z,46.51
2018-08-28T17:27:24.768Z,46.71
2018-08-28T17:28:25.099Z,47.01
2018-08-28T17:29:25.682Z,47.21
2018-08-28T17:30:25.904Z,48.03
2018-08-28T17:31:25.294Z,47.20
2018-08-28T17:32:26.993Z,47.65
2018-08-28T17:33:27.428Z,48.31
2018-08-28T17:33:36.078Z,47.11
2018-08-28T17:34:36.637Z,47.09
2018-08-28T17:35:36.922Z,47.37
2018-08-28T17:36:36.299Z,47.62
2018-08-28T17:37:39.236Z,47.93
2018-08-28T17:38:38.603Z,48.29
2018-08-28T17:39:40.127Z,48.48
2018-08-28T17:40:39.788Z,49.02
2018-08-28T17:41:40.081Z,49.69
2018-08-28T17:42:40.449Z,49.46
2018-08-28T17:43:40.245Z,49.44
2018-08-28T17:44:41.266Z,49.36
2018-08-28T17:45:40.564Z,49.69
2018-08-28T17:46:40.853Z,49.73
2018-08-28T17:47:42.285Z,49.90
2018-08-28T17:48:43.632Z,49.77
2018-08-28T17:49:41.968Z,48.18
2018-08-28T17:50:43.588Z,48.79
2018-08-28T17:51:43.948Z,49.26
2018-08-28T17:52:44.061Z,48.54
2018-08-28T17:53:44.611Z,48.68
2018-08-28T17:54:44.725Z,49.71
2018-08-28T17:55:44.910Z,50.92
2018-08-28T17:56:45.191Z,50.71
2018-08-28T17:57:45.728Z,50.81
2018-08-28T17:58:46.020Z,51.05
2018-08-28T17:59:46.441Z,51.78
2018-08-28T18:00:46.682Z,52.13
2018-08-28T18:01:46.977Z,52.33
2018-08-28T18:02:47.630Z,52.06
2018-08-28T18:03:47.472Z,52.61
2018-08-28T18:04:51.270Z,52.67
2018-08-28T18:05:50.095Z,53.20
2018-08-28T18:06:50.904Z,53.21
2018-08-28T18:07:51.228Z,53.19
2018-08-28T18:08:51.535Z,53.76
2018-08-28T18:09:51.976Z,53.38
2018-08-28T18:10:52.356Z,53.27
2018-08-28T18:11:52.737Z,53.30
2018-08-28T18:12:53.108Z,54.34
2018-08-28T18:13:53.452Z,54.79
2018-08-28T18:14:53.737Z,54.18
2018-08-28T18:15:54.710Z,54.27
2018-08-28T18:16:55.105Z,53.74
2018-08-28T18:17:55.456Z,53.57
2018-08-28T18:18:54.649Z,54.25
2018-08-28T18:19:03.659Z,54.28
2018-08-28T18:20:03.864Z,54.25
2018-08-28T18:21:04.714Z,54.33
2018-08-28T18:22:04.171Z,54.40
2018-08-28T18:23:04.298Z,54.44
2018-08-28T18:24:04.571Z,54.05
2018-08-28T18:25:04.965Z,53.45
2018-08-28T18:26:05.309Z,54.16
2018-08-28T18:27:05.913Z,54.02
2018-08-28T18:28:06.285Z,53.86
2018-08-28T18:29:06.625Z,54.75
2018-08-28T18:30:07.282Z,54.72
2018-08-28T18:31:07.696Z,55.21
2018-08-28T18:32:08.103Z,55.08
2018-08-28T18:33:08.432Z,54.97
2018-08-28T18:34:07.723Z,55.07
2018-08-28T18:35:09.074Z,55.63
2018-08-28T18:36:09.352Z,56.16
2018-08-28T18:37:09.690Z,56.62
2018-08-28T18:38:10.064Z,56.16
2018-08-28T18:39:10.109Z,56.64
2018-08-28T18:40:10.507Z,56.62
2018-08-28T18:41:11.063Z,57.13
2018-08-28T18:42:10.340Z,56.82
2018-08-28T18:43:11.739Z,56.54
2018-08-28T18:44:12.097Z,56.65
2018-08-28T18:45:12.453Z,57.16
2018-08-28T18:46:12.308Z,57.49
2018-08-28T18:47:14.050Z,57.28
2018-08-28T18:48:14.053Z,57.09
2018-08-28T18:49:14.724Z,57.46
2018-08-28T18:50:15.042Z,57.93
2018-08-28T18:51:15.442Z,58.05
2018-08-28T18:52:15.856Z,57.54
2018-08-28T18:53:17.564Z,57.90
2018-08-28T18:54:15.689Z,57.59
2018-08-28T18:55:17.262Z,57.64
2018-08-28T18:56:17.619Z,57.69
2018-08-28T18:57:16.835Z,57.64
2018-08-28T18:58:19.174Z,57.72
2018-08-28T18:59:18.205Z,57.75
2018-08-28T19:00:18.489Z,57.98
2018-08-28T19:01:18.887Z,57.95
2018-08-28T19:02:19.246Z,57.70
2018-08-28T19:03:19.790Z,58.11
2018-08-28T19:04:20.162Z,58.16
2018-08-28T19:05:20.475Z,58.52
2018-08-28T19:06:21.675Z,58.23
2018-08-28T19:06:40.641Z,58.00
2018-08-28T19:07:42.855Z,58.04
2018-08-28T19:08:41.215Z,58.12
2018-08-28T19:09:41.522Z,58.62
2018-08-28T19:10:41.863Z,58.55
2018-08-28T19:11:42.145Z,58.82
2018-08-28T19:12:42.508Z,58.73
2018-08-28T19:13:42.837Z,58.74
2018-08-28T19:14:43.171Z,58.90
2018-08-28T19:15:42.778Z,59.07
2018-08-28T19:16:44.101Z,59.10
2018-08-28T19:17:44.431Z,58.77
2018-08-28T19:18:44.735Z,59.05
2018-08-28T19:19:45.725Z,59.33
2018-08-28T19:20:46.048Z,59.99
2018-08-28T19:21:45.290Z,59.47
2018-08-28T19:22:46.879Z,59.25
2018-08-28T19:23:47.455Z,59.49
2018-08-28T19:24:47.803Z,59.76
2018-08-28T19:25:48.231Z,59.61
2018-08-28T19:26:48.630Z,59.56
2018-08-28T19:27:49.573Z,59.46
2018-08-28T19:28:49.896Z,59.65
2018-08-28T19:29:50.384Z,59.94
2018-08-28T19:30:50.688Z,59.97
2018-08-28T19:31:51.037Z,60.35
2018-08-28T19:32:50.504Z,60.00
2018-08-28T19:33:52.220Z,60.09
2018-08-28T19:34:52.451Z,60.20
2018-08-28T19:35:52.875Z,59.99
2018-08-28T19:36:53.695Z,60.15
2018-08-28T19:37:54.573Z,60.61
2018-08-28T19:38:55.330Z,60.24
2018-08-28T19:39:55.932Z,60.40
2018-08-28T19:40:56.411Z,60.29
2018-08-28T19:41:56.935Z,60.34
2018-08-28T19:42:57.414Z,60.36
2018-08-28T19:43:58.235Z,60.42
2018-08-28T19:44:57.240Z,60.23
2018-08-28T19:45:57.767Z,60.47
2018-08-28T19:46:59.444Z,60.79
2018-08-28T19:47:58.678Z,60.65
2018-08-28T19:49:00.191Z,60.73
2018-08-28T19:50:00.862Z,61.59
2018-08-28T19:51:00.214Z,60.60
2018-08-28T19:52:00.335Z,60.80
2018-08-28T19:53:03.592Z,61.27
2018-08-28T19:54:02.039Z,60.54
2018-08-28T19:55:12.893Z,60.73
2018-08-28T19:56:15.191Z,60.76
2018-08-28T19:57:12.136Z,60.91
2018-08-28T19:58:29.962Z,60.24
2018-08-28T20:00:25.768Z,60.28
2018-08-28T20:01:27.111Z,60.46
2018-08-28T20:02:26.428Z,60.69
2018-08-28T20:03:26.876Z,61.18
2018-08-28T20:04:28.802Z,60.94
2018-08-28T20:05:28.634Z,60.98
2018-08-28T20:06:30.002Z,60.71
2018-08-28T20:07:30.264Z,61.69
2018-08-28T20:08:30.642Z,61.30
2018-08-28T20:09:30.767Z,60.70
2018-08-28T20:10:31.066Z,60.62
2018-08-28T20:11:31.385Z,60.69
2018-08-28T20:12:31.817Z,60.86
2018-08-28T20:13:31.199Z,60.98
2018-08-28T20:14:32.914Z,61.10
2018-08-28T20:15:32.213Z,61.26
2018-08-28T20:16:33.856Z,61.52
2018-08-28T20:17:34.527Z,61.63
2018-08-28T20:18:35.041Z,62.20
2018-08-28T20:19:34.738Z,62.06
2018-08-28T20:20:35.323Z,61.72
2018-08-28T20:21:36.110Z,61.66
2018-08-28T20:22:36.889Z,61.53
2018-08-28T20:23:38.722Z,61.78
2018-08-28T20:24:39.180Z,62.53
2018-08-28T20:25:40.797Z,63.16
2018-08-28T20:26:38.719Z,63.20
2018-08-28T20:27:38.953Z,63.25
2018-08-28T20:28:39.306Z,64.46
2018-08-28T20:29:39.383Z,64.28
2018-08-28T20:30:40.336Z,65.56
2018-08-28T20:31:41.053Z,65.46
2018-08-28T20:32:41.533Z,66.15
2018-08-28T20:33:41.885Z,65.95
2018-08-28T20:34:41.894Z,67.82
2018-08-28T20:35:42.396Z,67.24
2018-08-28T20:36:42.855Z,67.83
2018-08-28T20:37:43.149Z,65.31
2018-08-28T20:38:43.677Z,65.94
2018-08-28T20:39:44.454Z,63.78
2018-08-28T20:40:44.726Z,63.73
2018-08-28T20:41:45.908Z,66.16
2018-08-28T20:42:45.594Z,65.38
2018-08-28T20:43:45.727Z,65.46
2018-08-28T20:44:46.494Z,66.97
2018-08-28T20:45:47.117Z,64.78
2018-08-28T20:46:48.415Z,66.16
2018-08-28T20:47:48.731Z,66.93
2018-08-28T20:48:49.324Z,65.29
2018-08-28T20:49:49.348Z,65.74
2018-08-28T20:50:48.885Z,66.79
2018-08-28T20:51:50.311Z,66.78
2018-08-28T20:52:49.616Z,66.80
2018-08-28T20:53:50.571Z,66.97
2018-08-28T20:54:50.999Z,67.13
2018-08-28T20:55:51.571Z,67.17
2018-08-28T20:56:51.814Z,66.18
2018-08-28T20:57:52.231Z,64.54
2018-08-28T20:58:52.712Z,65.10
2018-08-28T20:59:53.501Z,65.84
2018-08-28T21:00:53.855Z,67.91
2018-08-28T21:01:54.294Z,66.93
2018-08-28T21:02:54.470Z,66.62
2018-08-28T21:03:55.085Z,66.07
2018-08-28T21:04:55.806Z,64.90
2018-08-28T21:05:56.372Z,65.05
2018-08-28T21:06:57.453Z,66.44
2018-08-28T21:07:57.451Z,66.88
2018-08-28T21:08:57.768Z,67.29
2018-08-28T21:09:57.789Z,66.68
2018-08-28T21:10:57.817Z,67.14
2018-08-28T21:11:58.591Z,67.72
2018-08-28T21:12:58.917Z,69.39
2018-08-28T21:13:59.373Z,70.04
2018-08-28T21:15:00.003Z,70.06
2018-08-28T21:15:59.998Z,71.14
2018-08-28T21:17:00.625Z,70.59
2018-08-28T21:18:00.996Z,70.76
2018-08-28T21:19:01.561Z,65.73
2018-08-28T21:20:02.246Z,65.49
2018-08-28T21:21:02.960Z,65.48
2018-08-28T21:22:03.032Z,65.40
2018-08-28T21:23:03.794Z,66.05
2018-08-28T21:24:04.557Z,65.94
2018-08-28T21:25:05.804Z,66.91
2018-08-28T21:26:05.776Z,67.12
2018-08-28T21:27:05.736Z,67.56
2018-08-28T21:28:06.556Z,67.79
2018-08-28T21:29:08.155Z,68.83
2018-08-28T21:30:07.874Z,69.07
2018-08-28T21:31:09.683Z,70.45
2018-08-28T21:32:09.216Z,69.35
2018-08-28T21:33:09.961Z,67.26
2018-08-28T21:34:09.951Z,67.11
2018-08-28T21:35:10.927Z,67.71
2018-08-28T21:36:11.251Z,66.60
2018-08-28T21:37:11.445Z,67.49
2018-08-28T21:38:13.004Z,67.17
2018-08-28T21:39:12.253Z,66.55
2018-08-28T21:40:12.692Z,67.57
2018-08-28T21:41:13.672Z,68.60
2018-08-28T21:42:14.278Z,67.91
2018-08-28T21:43:15.031Z,68.37
2018-08-28T21:44:15.411Z,67.14
2018-08-28T21:44:24.102Z,67.74
2018-08-28T21:45:24.389Z,67.86
2018-08-28T21:46:25.474Z,67.48
2018-08-28T21:47:26.233Z,67.19
2018-08-28T21:48:26.384Z,67.55
2018-08-28T21:49:26.386Z,66.90
2018-08-28T21:50:27.408Z,67.14
2018-08-28T21:51:27.941Z,66.71
2018-08-28T21:52:28.320Z,66.03
2018-08-28T21:53:28.404Z,65.96
2018-08-28T21:54:29.159Z,66.05
2018-08-28T21:55:29.278Z,66.19
2018-08-28T21:56:29.624Z,66.62
2018-08-28T21:57:30.080Z,66.97
2018-08-28T21:58:30.151Z,67.04
2018-08-28T21:59:30.286Z,67.15
2018-08-28T22:00:30.431Z,67.14
2018-08-28T22:01:31.072Z,68.17
2018-08-28T22:02:31.196Z,67.94
2018-08-28T22:03:31.649Z,68.37
2018-08-28T22:04:31.994Z,68.44
2018-08-28T22:05:32.346Z,67.98
2018-08-28T22:06:32.594Z,67.97
2018-08-28T22:07:33.674Z,68.25
2018-08-28T22:08:33.727Z,68.26
2018-08-28T22:09:34.054Z,68.67
2018-08-28T22:10:34.007Z,68.61
2018-08-28T22:11:36.598Z,67.82
2018-08-28T22:12:35.892Z,67.94
2018-08-28T22:13:36.723Z,67.74
2018-08-28T22:14:37.193Z,68.67